Terminal Aerodrome Forecast
Issued by NWS Shreveport, LA

Home | Current Version | Previous Version | Text Only | Print | Product List | Glossary On
Versions: 1 2 3 4 5 6 7 8 9 10 11 12 13 14 15 16
000
FTUS44 KSHV 202000 AAA
TAFGGG
TAF AMD
KGGG 202022Z 2020/2118 00000KT P6SM BKN015
     FM202100 05005KT P6SM SCT020
     FM210400 08005KT P6SM SCT020 OVC050
     FM210800 11005KT 4SM BR OVC007
     FM211500 13006KT P6SM SCT007 OVC025=

USA.gov is the U.S. government's official web portal to all federal, state and local government web resources and services.